Time;durP1;ratioP1;P1;durP2;ratioP2;P2;SDS_P1;SDS_P2;PMS_P1;PMS_P2;Temp;Humidity;BMP_temperature;BMP_pressure;BME280_temperature;BME280_humidity;BME280_pressure;Samples;Min_cycle;Max_cycle;Signal;HPM_P1;HPM_P2
2022/09/08 00:02:25;;;;;;;;;2.00;0.33;;;;;17.80;73.59;100352.75;5086412;27;45218;-57
2022/09/08 00:04:51;;;;;;;;;3.33;1.00;;;;;17.80;73.54;100344.69;5095690;27;45609;-55
2022/09/08 00:07:18;;;;;;;;;0.00;0.00;;;;;17.83;73.63;100345.25;5094125;27;45421;-57
2022/09/08 00:09:44;;;;;;;;;3.33;1.00;;;;;17.83;73.36;100344.41;5097098;27;46031;-54
2022/09/08 00:12:12;;;;;;;;;1.00;1.00;;;;;17.80;73.50;100345.53;5083537;27;45418;-56
2022/09/08 00:14:38;;;;;;;;;0.00;0.00;;;;;17.75;73.88;100341.56;5096078;27;45574;-58
2022/09/08 00:17:03;;;;;;;;;1.00;1.00;;;;;17.78;73.70;100346.69;5097197;27;45688;-55
2022/09/08 00:19:29;;;;;;;;;2.00;2.00;;;;;17.78;73.94;100347.53;5095367;27;45990;-57
2022/09/08 00:21:54;;;;;;;;;0.67;0.67;;;;;17.79;73.61;100348.38;5090613;27;45479;-53
2022/09/08 00:24:20;;;;;;;;;0.00;0.00;;;;;17.79;73.97;100359.13;5093015;27;45330;-58
2022/09/08 00:26:45;;;;;;;;;3.00;1.00;;;;;17.75;73.82;100358.56;5091811;27;45236;-56
2022/09/08 00:29:11;;;;;;;;;2.00;1.00;;;;;17.75;73.67;100357.72;5095615;27;45372;-55
2022/09/08 00:31:40;;;;;;;;;0.67;0.67;;;;;17.75;73.66;100357.72;5093148;27;45392;-54
2022/09/08 00:34:07;;;;;;;;;0.00;0.00;;;;;17.78;73.79;100354.75;5085268;27;45448;-51
2022/09/08 00:36:33;;;;;;;;;4.00;3.00;;;;;17.74;73.54;100350.63;5094837;27;45172;-54
2022/09/08 00:39:00;;;;;;;;;4.00;1.00;;;;;17.73;73.58;100352.47;5094916;27;45415;-54
2022/09/08 00:41:27;;;;;;;;;1.67;1.67;;;;;17.74;73.24;100353.31;5089546;27;45242;-54
2022/09/08 00:43:58;;;;;;;;;2.00;0.00;;;;;17.72;73.59;100339.16;5098105;27;45433;-56
2022/09/08 00:46:39;;;;;;;;;2.00;2.00;;;;;17.77;73.50;100353.03;5091076;27;45304;-53
2022/09/08 00:49:13;;;;;;;;;0.00;0.00;;;;;17.80;73.14;100350.06;5093516;27;47476;-56
2022/09/08 00:51:42;;;;;;;;;1.00;1.00;;;;;17.77;72.86;100345.81;5092364;27;45287;-59
2022/09/08 00:54:10;;;;;;;;;2.33;1.00;;;;;17.78;73.06;100344.84;5089216;27;45226;-55
2022/09/08 00:56:39;;;;;;;;;4.00;2.00;;;;;17.79;73.08;100340.31;5086479;27;45331;-57
2022/09/08 00:59:06;;;;;;;;;2.00;0.00;;;;;17.76;73.20;100344.13;5096294;27;46204;-56
2022/09/08 01:01:33;;;;;;;;;1.00;1.00;;;;;17.75;72.92;100347.81;5091078;27;45598;-58
2022/09/08 01:03:59;;;;;;;;;4.67;4.67;;;;;17.73;72.86;100351.63;5094918;27;45545;-54
2022/09/08 01:12:45;;;;;;;;;2.67;0.33;;;;;17.74;72.96;100353.31;5095367;27;45768;-59
2022/09/08 01:15:16;;;;;;;;;1.00;1.00;;;;;17.77;73.01;100347.66;5086951;27;45543;-53
2022/09/08 01:17:42;;;;;;;;;1.00;1.00;;;;;17.78;73.03;100347.53;5091977;27;45495;-57
2022/09/08 01:20:10;;;;;;;;;1.33;1.00;;;;;17.77;72.97;100351.19;5095300;27;46053;-59
2022/09/08 01:22:47;;;;;;;;;1.00;1.00;;;;;17.76;72.45;100354.03;5078557;27;45251;-58
2022/09/08 01:25:49;;;;;;;;;1.00;1.00;;;;;17.73;72.83;100359.69;5080755;27;45535;-58
2022/09/08 01:28:24;;;;;;;;;0.33;0.33;;;;;17.72;73.38;100366.91;5076864;28;45210;-59
2022/09/08 01:30:52;;;;;;;;;1.00;1.00;;;;;17.75;72.91;100355.03;5093384;27;46244;-59
2022/09/08 01:33:19;;;;;;;;;2.33;0.67;;;;;17.81;73.03;100362.53;5094053;27;45275;-56
2022/09/08 01:35:44;;;;;;;;;1.00;1.00;;;;;17.75;73.19;100352.34;5095230;27;45550;-59
2022/09/08 01:38:11;;;;;;;;;0.67;0.67;;;;;17.80;73.24;100372.44;5093049;27;45559;-56
2022/09/08 01:40:38;;;;;;;;;0.33;0.33;;;;;17.73;72.88;100371.31;5091931;27;45460;-58
2022/09/08 01:43:08;;;;;;;;;5.00;1.00;;;;;17.68;72.50;100366.31;5095653;27;45443;-56
2022/09/08 01:45:34;;;;;;;;;2.00;1.00;;;;;17.74;72.65;100361.41;5091226;27;45442;-57
2022/09/08 01:47:59;;;;;;;;;0.33;0.33;;;;;17.77;72.85;100372.72;5095943;27;45573;-53
2022/09/08 01:50:24;;;;;;;;;4.00;1.00;;;;;17.72;72.99;100379.50;5084259;27;46397;-56
2022/09/08 01:52:50;;;;;;;;;0.67;0.67;;;;;17.70;72.72;100379.63;5079458;27;45467;-58
2022/09/08 01:55:16;;;;;;;;;0.67;0.67;;;;;17.69;73.18;100373.41;5074298;27;45563;-55
2022/09/08 01:57:41;;;;;;;;;2.00;2.00;;;;;17.72;73.19;100382.22;5087434;27;45438;-57
2022/09/08 02:00:07;;;;;;;;;1.00;0.00;;;;;17.55;73.18;100368.38;5084366;27;45385;-59
2022/09/08 02:02:33;;;;;;;;;1.00;1.00;;;;;17.66;73.52;100387.09;5076893;27;45472;-54
2022/09/08 02:04:59;;;;;;;;;1.00;1.00;;;;;17.59;73.66;100380.56;5087626;27;45288;-56
2022/09/08 02:07:25;;;;;;;;;1.67;1.33;;;;;17.61;73.90;100383.13;5093173;27;45640;-59
2022/09/08 02:09:51;;;;;;;;;4.00;1.00;;;;;17.60;73.92;100382.28;5092112;27;48760;-55
2022/09/08 02:12:16;;;;;;;;;2.00;2.00;;;;;17.63;74.01;100386.53;5080547;27;45364;-57
2022/09/08 02:14:42;;;;;;;;;1.00;1.00;;;;;17.60;73.50;100376.03;5084499;27;45321;-52
2022/09/08 02:17:07;;;;;;;;;2.00;1.00;;;;;17.59;74.02;100382.41;5074340;27;45602;-55
2022/09/08 02:19:32;;;;;;;;;0.00;0.00;;;;;17.57;73.97;100382.50;5079647;27;45690;-56
2022/09/08 02:21:58;;;;;;;;;0.00;0.00;;;;;17.53;73.72;100369.50;5094261;27;45448;-50
2022/09/08 02:24:23;;;;;;;;;1.00;1.00;;;;;17.60;73.84;100381.41;5082059;27;45499;-55
2022/09/08 02:26:49;;;;;;;;;1.00;1.00;;;;;17.62;73.64;100379.44;5112172;27;45596;-54
2022/09/08 02:29:15;;;;;;;;;1.00;1.00;;;;;17.66;74.02;100381.72;5090549;27;45443;-54
2022/09/08 02:31:41;;;;;;;;;1.00;1.00;;;;;17.69;73.63;100375.22;5098496;27;45473;-56
2022/09/08 02:34:06;;;;;;;;;0.67;0.67;;;;;17.65;73.59;100371.94;5098129;27;45495;-55
2022/09/08 02:36:32;;;;;;;;;1.00;1.00;;;;;17.63;73.87;100367.69;5076921;28;45632;-57
2022/09/08 02:38:57;;;;;;;;;1.00;1.00;;;;;17.59;73.73;100361.75;5089398;27;45403;-59
2022/09/08 02:41:25;;;;;;;;;1.00;1.00;;;;;17.56;74.34;100364.69;5095570;27;45280;-55
2022/09/08 02:43:50;;;;;;;;;3.00;1.00;;;;;17.57;74.42;100361.00;5095535;27;45599;-57
2022/09/08 02:46:16;;;;;;;;;1.67;1.00;;;;;17.61;73.98;100361.59;5097979;27;45232;-54
2022/09/08 02:48:42;;;;;;;;;1.00;1.00;;;;;17.65;73.89;100358.50;5080792;27;45570;-55
2022/09/08 02:51:10;;;;;;;;;1.00;1.00;;;;;17.61;73.76;100359.78;5078026;27;45461;-56
2022/09/08 02:53:37;;;;;;;;;1.00;1.00;;;;;17.61;73.81;100354.38;5083981;27;45319;-58
2022/09/08 02:56:04;;;;;;;;;1.00;1.00;;;;;17.56;73.97;100351.25;5095376;27;45324;-55
2022/09/08 02:58:29;;;;;;;;;2.33;1.00;;;;;17.56;74.13;100353.06;5078813;27;46722;-56
2022/09/08 03:00:55;;;;;;;;;2.33;1.00;;;;;17.54;74.27;100336.25;5092983;27;45421;-54
2022/09/08 03:03:22;;;;;;;;;1.00;1.00;;;;;17.51;74.92;100334.69;5094269;27;45512;-53
2022/09/08 03:05:48;;;;;;;;;1.00;1.00;;;;;17.48;74.76;100326.91;5098402;27;45219;-60
2022/09/08 03:08:15;;;;;;;;;2.00;2.00;;;;;17.50;74.85;100338.34;5096392;27;45544;-53
2022/09/08 03:10:41;;;;;;;;;0.33;0.33;;;;;17.48;74.60;100332.28;5097347;27;45821;-57
2022/09/08 03:13:07;;;;;;;;;1.00;1.00;;;;;17.46;74.91;100342.31;5098241;27;45539;-57
2022/09/08 03:15:33;;;;;;;;;1.67;1.67;;;;;17.42;75.02;100335.50;5095872;27;45240;-55
2022/09/08 03:17:59;;;;;;;;;2.00;1.00;;;;;17.43;75.02;100326.44;5090640;27;47848;-57
2022/09/08 03:20:25;;;;;;;;;1.00;1.00;;;;;17.46;74.75;100331.56;5097927;27;45254;-54
2022/09/08 03:22:51;;;;;;;;;1.00;1.00;;;;;17.49;74.82;100333.97;5083175;27;45448;-57
2022/09/08 03:25:18;;;;;;;;;1.00;1.00;;;;;17.47;74.92;100338.63;5082386;27;45299;-53
2022/09/08 03:27:43;;;;;;;;;2.00;2.00;;;;;17.44;75.34;100333.50;5098996;27;46208;-53
2022/09/08 03:30:12;;;;;;;;;2.00;2.00;;;;;17.49;74.95;100327.75;5098031;27;45462;-55
2022/09/08 03:32:39;;;;;;;;;2.33;2.00;;;;;17.47;75.05;100324.34;5079132;27;45567;-53
2022/09/08 03:35:09;;;;;;;;;1.33;0.00;;;;;17.40;75.08;100322.19;5092107;27;45451;-58
2022/09/08 03:37:35;;;;;;;;;2.00;2.00;;;;;17.44;75.21;100317.38;5077069;27;48156;-55
2022/09/08 03:40:04;;;;;;;;;1.00;1.00;;;;;17.44;75.41;100317.38;5094196;27;45437;-54
2022/09/08 03:42:34;;;;;;;;;1.00;1.00;;;;;17.44;74.81;100317.38;5088983;27;45575;-54
2022/09/08 03:45:00;;;;;;;;;1.00;1.00;;;;;17.47;75.14;100316.28;5087194;27;45415;-57
2022/09/08 03:47:25;;;;;;;;;1.00;1.00;;;;;17.42;75.07;100324.72;5084133;27;45464;-57
2022/09/08 03:49:51;;;;;;;;;2.67;2.33;;;;;17.26;75.41;100303.75;5094318;27;45490;-58
2022/09/08 03:52:16;;;;;;;;;1.00;1.00;;;;;17.42;75.08;100324.72;5080377;27;45477;-56
2022/09/08 03:54:48;;;;;;;;;3.67;2.00;;;;;17.43;75.50;100318.38;5096051;27;45416;-53
2022/09/08 03:57:16;;;;;;;;;1.00;1.00;;;;;17.40;75.33;100326.72;5079562;27;46069;-55
2022/09/08 03:59:42;;;;;;;;;2.00;2.00;;;;;17.38;75.21;100328.69;5077439;27;45519;-58
2022/09/08 04:02:09;;;;;;;;;3.33;2.00;;;;;17.37;75.44;100321.63;5112707;27;45352;-57
2022/09/08 04:04:35;;;;;;;;;3.00;3.00;;;;;17.33;75.08;100321.03;5098013;27;45440;-58
2022/09/08 04:07:00;;;;;;;;;2.67;2.33;;;;;17.22;75.75;100301.47;5097029;27;45978;-53
2022/09/08 04:09:26;;;;;;;;;1.67;1.67;;;;;17.33;75.23;100325.56;5096438;27;45290;-56
2022/09/08 04:11:51;;;;;;;;;2.67;2.00;;;;;17.26;75.46;100311.81;5087298;27;45641;-54
2022/09/08 04:14:17;;;;;;;;;2.00;2.00;;;;;17.26;75.77;100319.03;5095081;27;45226;-54
2022/09/08 04:16:42;;;;;;;;;1.67;1.67;;;;;17.28;75.18;100317.91;5076511;27;45406;-57
2022/09/08 04:19:09;;;;;;;;;3.00;2.00;;;;;17.30;75.27;100317.75;5096261;27;45688;-57
2022/09/08 04:21:35;;;;;;;;;2.00;2.00;;;;;17.31;75.46;100317.63;5097779;27;46001;-55
2022/09/08 04:24:00;;;;;;;;;1.67;1.67;;;;;17.30;75.41;100320.44;5092975;27;45844;-53
2022/09/08 04:26:26;;;;;;;;;3.67;2.00;;;;;17.31;75.43;100316.75;5087456;27;45254;-54
2022/09/08 04:28:52;;;;;;;;;4.00;2.00;;;;;17.29;75.63;100318.75;5092930;27;45462;-59
2022/09/08 04:31:17;;;;;;;;;3.33;2.00;;;;;17.28;75.61;100303.59;5077222;27;45529;-57
2022/09/08 04:33:43;;;;;;;;;2.00;2.00;;;;;17.24;75.91;100296.81;5077910;27;45267;-56
2022/09/08 04:36:13;;;;;;;;;4.33;2.00;;;;;17.21;75.71;100297.94;5097487;27;45374;-56
2022/09/08 04:38:39;;;;;;;;;4.00;1.00;;;;;17.17;75.71;100301.00;5096293;27;45488;-60
2022/09/08 04:41:07;;;;;;;;;4.00;2.00;;;;;17.24;75.26;100304.88;5080775;27;45266;-55
2022/09/08 04:43:33;;;;;;;;;3.67;2.00;;;;;17.20;75.70;100300.75;5111557;27;45554;-59
2022/09/08 04:46:08;;;;;;;;;4.00;2.33;;;;;17.29;75.48;100299.94;5080424;27;45502;-57
2022/09/08 04:48:34;;;;;;;;;2.00;2.00;;;;;17.29;75.22;100305.31;5080758;27;45431;-52
2022/09/08 04:51:00;;;;;;;;;2.67;2.67;;;;;17.27;75.57;100305.44;5092350;27;45346;-57
2022/09/08 04:53:28;;;;;;;;;2.00;2.00;;;;;17.27;75.73;100305.44;5088105;27;45538;-52
2022/09/08 04:55:54;;;;;;;;;1.00;1.00;;;;;17.31;75.46;100311.38;5095083;27;47905;-54
2022/09/08 04:58:21;;;;;;;;;4.00;2.00;;;;;17.28;75.08;100296.38;5090841;27;46124;-55
2022/09/08 05:00:46;;;;;;;;;3.00;3.00;;;;;17.33;75.41;100306.75;5082968;27;45418;-54
2022/09/08 05:03:12;;;;;;;;;3.67;1.67;;;;;17.33;75.49;100309.44;5082020;27;45328;-57
2022/09/08 05:05:38;;;;;;;;;2.67;2.67;;;;;17.32;75.63;100307.75;5076978;27;47837;-56
2022/09/08 05:08:04;;;;;;;;;3.00;3.00;;;;;17.31;75.58;100306.00;5076573;27;46925;-56
2022/09/08 05:10:32;;;;;;;;;4.00;2.00;;;;;17.32;75.70;100310.44;5087641;27;45563;-56
2022/09/08 05:12:58;;;;;;;;;5.33;1.67;;;;;17.34;75.73;100317.38;5096296;27;45504;-57
2022/09/08 05:15:24;;;;;;;;;3.00;3.00;;;;;17.38;75.27;100310.72;5081961;27;46444;-55
2022/09/08 05:17:50;;;;;;;;;2.00;2.00;;;;;17.38;75.05;100320.63;5093520;27;45345;-55
2022/09/08 05:20:16;;;;;;;;;3.67;2.33;;;;;17.35;74.99;100318.22;5095632;27;45291;-57
2022/09/08 05:22:41;;;;;;;;;5.00;2.00;;;;;17.25;74.97;100301.19;5095620;27;45698;-58
2022/09/08 05:25:07;;;;;;;;;3.33;2.33;;;;;17.11;75.26;100272.84;5090096;27;47265;-56
2022/09/08 05:27:33;;;;;;;;;3.00;2.33;;;;;17.36;75.23;100318.06;5079566;27;45613;-57
2022/09/08 05:29:59;;;;;;;;;3.00;3.00;;;;;17.36;75.08;100320.75;5095511;27;45457;-55
2022/09/08 05:32:24;;;;;;;;;2.00;2.00;;;;;17.26;75.31;100309.13;5090934;27;45665;-55
2022/09/08 05:34:50;;;;;;;;;3.00;2.00;;;;;17.35;75.00;100316.38;5093849;27;46747;-57
2022/09/08 05:37:15;;;;;;;;;2.67;2.00;;;;;17.39;74.97;100315.09;5093215;27;45504;-58
2022/09/08 05:39:41;;;;;;;;;4.33;2.67;;;;;17.28;74.91;100311.66;5092333;27;45575;-55
2022/09/08 05:42:06;;;;;;;;;1.67;1.67;;;;;17.38;74.85;100324.16;5093440;27;45404;-59
2022/09/08 05:44:31;;;;;;;;;3.00;1.33;;;;;17.39;74.54;100314.25;5093011;27;46260;-57
2022/09/08 05:46:57;;;;;;;;;3.00;2.00;;;;;17.40;74.85;100316.81;5096074;27;45401;-58
2022/09/08 05:49:23;;;;;;;;;3.00;1.00;;;;;17.46;74.71;100326.19;5091620;27;45329;-59
2022/09/08 05:51:52;;;;;;;;;3.00;3.00;;;;;17.40;74.82;100313.28;5077265;27;45543;-65
2022/09/08 05:54:18;;;;;;;;;4.33;3.00;;;;;17.49;74.66;100325.91;5096531;27;45414;-57
2022/09/08 05:56:44;;;;;;;;;3.67;3.00;;;;;17.49;74.58;100320.53;5098462;27;45505;-57
2022/09/08 05:59:11;;;;;;;;;3.67;2.00;;;;;17.45;74.75;100313.72;5095444;27;45553;-59
2022/09/08 06:01:36;;;;;;;;;4.00;4.00;;;;;17.50;74.45;100322.22;5088439;27;45401;-57
2022/09/08 06:04:02;;;;;;;;;2.00;2.00;;;;;17.57;74.54;100327.88;5100121;27;46910;-57
2022/09/08 06:06:29;;;;;;;;;4.67;3.00;;;;;17.60;74.15;100327.63;5099728;27;45385;-58
2022/09/08 06:08:55;;;;;;;;;3.00;3.00;;;;;17.62;74.10;100323.81;5097816;27;45425;-63
2022/09/08 06:11:21;;;;;;;;;4.67;4.00;;;;;17.60;74.24;100323.13;5100915;27;45251;-58
2022/09/08 06:13:48;;;;;;;;;4.00;4.00;;;;;17.53;74.25;100316.56;5101242;27;45443;-59
2022/09/08 06:16:14;;;;;;;;;2.67;2.00;;;;;17.50;74.02;100303.41;5098409;27;45275;-59
2022/09/08 06:18:42;;;;;;;;;4.33;3.00;;;;;17.55;73.62;100328.03;5120024;27;45756;-58
2022/09/08 06:21:27;;;;;;;;;3.33;2.00;;;;;17.54;73.90;100322.78;5120276;27;45535;-59
2022/09/08 06:23:55;;;;;;;;;3.33;3.00;;;;;17.59;73.66;100321.41;5098843;27;46346;-58
2022/09/08 06:26:52;;;;;;;;;5.00;2.33;;;;;17.67;73.77;100335.00;5092752;27;45464;-59
2022/09/08 06:29:23;;;;;;;;;5.00;4.00;;;;;17.76;73.42;100327.13;5093122;27;45568;-58
2022/09/08 06:31:57;;;;;;;;;3.00;3.00;;;;;17.81;73.13;100330.25;5095930;27;45511;-59
2022/09/08 06:34:28;;;;;;;;;4.33;3.00;;;;;17.76;72.58;100319.06;5090218;27;45689;-59
2022/09/08 06:37:34;;;;;;;;;3.00;3.00;;;;;17.87;72.50;100321.66;5094391;27;45481;-60
2022/09/08 06:40:11;;;;;;;;;4.33;4.33;;;;;18.00;72.34;100327.59;5098523;27;45314;-58
2022/09/08 06:42:49;;;;;;;;;3.33;3.33;;;;;18.08;71.74;100327.72;5082113;27;45639;-59
2022/09/08 06:45:28;;;;;;;;;5.33;3.33;;;;;18.07;71.12;100320.66;5099640;27;46101;-58
2022/09/08 06:48:15;;;;;;;;;5.00;3.00;;;;;18.13;70.59;100313.88;5097566;27;45466;-59
2022/09/08 06:51:18;;;;;;;;;5.33;3.67;;;;;18.16;70.40;100318.97;5090280;27;45459;-58
2022/09/08 06:53:57;;;;;;;;;4.00;3.00;;;;;18.19;70.51;100318.69;5091320;27;45652;-58
2022/09/08 06:56:29;;;;;;;;;3.33;3.33;;;;;18.28;70.36;100312.47;5097597;27;46171;-58
2022/09/08 06:59:01;;;;;;;;;4.67;3.33;;;;;18.31;70.09;100319.41;5092201;27;45347;-58
2022/09/08 07:01:55;;;;;;;;;6.00;4.00;;;;;18.25;69.87;100329.75;5078806;27;45441;-58
2022/09/08 07:04:45;;;;;;;;;6.00;4.67;;;;;18.22;69.77;100319.25;5084906;27;45464;-59
2022/09/08 07:07:34;;;;;;;;;6.00;4.67;;;;;18.31;70.10;100319.41;5083280;27;45441;-58
2022/09/08 07:10:09;;;;;;;;;4.67;3.00;;;;;18.40;70.02;100337.41;5077770;27;45456;-59
2022/09/08 07:12:52;;;;;;;;;4.00;4.00;;;;;18.35;69.84;100324.34;5080204;27;45687;-59
2022/09/08 07:15:42;;;;;;;;;5.00;4.00;;;;;18.42;70.01;100319.25;5094450;27;45654;-60
2022/09/08 07:18:22;;;;;;;;;4.00;4.00;;;;;18.49;69.32;100328.44;5096518;27;46995;-59
2022/09/08 07:20:48;;;;;;;;;3.33;3.00;;;;;18.51;69.13;100324.63;5095887;27;45348;-59
2022/09/08 07:23:26;;;;;;;;;3.33;3.00;;;;;18.57;69.21;100317.81;5085786;27;45543;-57
2022/09/08 07:26:08;;;;;;;;;5.67;3.00;;;;;18.67;69.15;100316.00;5088334;27;45641;-59
2022/09/08 07:28:41;;;;;;;;;6.00;3.00;;;;;18.72;68.70;100316.41;5091384;27;45902;-59
2022/09/08 07:31:17;;;;;;;;;7.00;5.00;;;;;18.73;68.49;100315.41;5097318;27;45356;-58
2022/09/08 07:33:46;;;;;;;;;5.00;5.00;;;;;18.65;68.66;100299.13;5095004;27;45409;-59
2022/09/08 07:36:44;;;;;;;;;4.33;4.00;;;;;18.80;68.54;100315.69;5096831;27;45461;-58
2022/09/08 07:39:30;;;;;;;;;4.00;4.00;;;;;18.79;68.54;100311.28;5091703;27;45853;-59
2022/09/08 07:41:59;;;;;;;;;3.00;3.00;;;;;18.78;68.60;100321.22;5091474;27;45347;-59
2022/09/08 07:44:25;;;;;;;;;5.33;5.33;;;;;18.79;68.60;100314.00;5095142;27;45530;-59
2022/09/08 07:47:17;;;;;;;;;4.33;4.00;;;;;18.80;68.01;100303.06;5095019;27;45768;-58
2022/09/08 07:49:58;;;;;;;;;4.00;4.00;;;;;18.89;67.86;100319.38;5090045;27;46683;-56
2022/09/08 07:52:55;;;;;;;;;3.00;3.00;;;;;18.86;68.13;100324.03;5090905;27;45544;-58
2022/09/08 07:55:21;;;;;;;;;4.00;3.00;;;;;18.89;68.18;100316.66;5085845;27;45560;-57
2022/09/08 07:58:15;;;;;;;;;4.00;4.00;;;;;18.90;68.34;100318.38;5093952;27;45637;-60
2022/09/08 08:01:02;;;;;;;;;3.33;3.33;;;;;18.92;67.91;100327.16;5085068;27;47018;-63
2022/09/08 08:04:08;;;;;;;;;6.33;4.33;;;;;18.95;68.13;100327.69;5089425;27;45431;-57
2022/09/08 08:06:44;;;;;;;;;9.00;8.00;;;;;19.09;68.16;100334.47;5094788;27;45287;-59
2022/09/08 08:09:36;;;;;;;;;4.00;4.00;;;;;19.15;67.38;100326.66;5087162;27;45654;-57
2022/09/08 08:12:36;;;;;;;;;7.33;6.00;;;;;19.16;67.00;100319.41;5096174;27;46388;-57
2022/09/08 08:15:18;;;;;;;;;4.33;4.33;;;;;19.32;66.88;100324.16;5050205;27;45984;-59
2022/09/08 08:17:56;;;;;;;;;4.00;2.67;;;;;19.32;66.32;100322.31;5096346;27;45470;-60
2022/09/08 08:20:45;;;;;;;;;4.67;4.67;;;;;19.27;66.40;100327.31;5091321;27;45518;-58
2022/09/08 08:23:32;;;;;;;;;5.00;3.67;;;;;19.25;66.83;100323.03;5099104;27;45295;-57
2022/09/08 08:26:00;;;;;;;;;5.33;5.00;;;;;19.27;67.03;100329.13;5107955;27;45355;-57
2022/09/08 08:28:26;;;;;;;;;4.67;4.67;;;;;19.26;66.74;100330.97;5119339;27;45422;-58
2022/09/08 08:31:10;;;;;;;;;5.00;4.00;;;;;19.28;66.02;100334.41;5101686;27;45488;-61
2022/09/08 08:33:42;;;;;;;;;8.00;4.33;;;;;19.22;65.96;100326.91;5090892;27;45529;-59
2022/09/08 08:36:12;;;;;;;;;4.00;4.00;;;;;19.33;65.44;100321.31;5085206;27;47072;-57
2022/09/08 08:39:12;;;;;;;;;5.67;4.33;;;;;19.41;65.28;100337.63;5091792;27;45432;-58
2022/09/08 08:42:02;;;;;;;;;5.33;2.67;;;;;19.34;65.15;100317.63;5095350;27;45176;-57
2022/09/08 08:44:43;;;;;;;;;6.67;4.33;;;;;19.44;64.91;100331.91;5096220;27;46169;-57
2022/09/08 08:47:38;;;;;;;;;3.33;2.00;;;;;19.34;64.60;100333.81;5077696;27;45612;-57
2022/09/08 08:50:40;;;;;;;;;7.33;5.00;;;;;19.29;65.10;100325.31;5079895;27;45340;-57
2022/09/08 08:53:24;;;;;;;;;3.33;3.33;;;;;19.28;64.86;100337.09;5091687;27;45164;-57
2022/09/08 08:56:21;;;;;;;;;8.67;5.33;;;;;19.37;64.59;100335.34;5098487;27;48406;-58
2022/09/08 08:58:55;;;;;;;;;5.00;4.00;;;;;19.42;64.35;100335.75;5058540;27;45374;-59
2022/09/08 09:01:45;;;;;;;;;3.33;2.00;;;;;19.45;63.98;100333.59;5087265;27;45410;-58
2022/09/08 09:04:52;;;;;;;;;7.00;4.00;;;;;19.59;63.72;100339.53;5077254;27;45373;-57
2022/09/08 09:07:33;;;;;;;;;3.67;3.67;;;;;19.88;63.40;100337.50;5092691;27;45432;-56
2022/09/08 09:10:30;;;;;;;;;3.00;3.00;;;;;20.08;62.67;100330.16;5095581;27;45340;-58
2022/09/08 09:13:14;;;;;;;;;5.00;3.00;;;;;20.17;61.99;100352.66;5084251;27;45384;-57
2022/09/08 09:15:48;;;;;;;;;4.67;3.00;;;;;20.18;61.93;100343.53;5096779;27;45517;-57
2022/09/08 09:19:11;;;;;;;;;3.00;3.00;;;;;20.12;62.05;100346.88;5097355;27;46951;-59
2022/09/08 09:21:59;;;;;;;;;3.50;3.50;;;;;19.95;62.40;100346.72;5026317;28;45500;-57
2022/09/08 09:24:38;;;;;;;;;3.00;3.00;;;;;19.81;63.09;100352.63;5034180;28;45437;-57
2022/09/08 09:27:41;;;;;;;;;3.67;3.67;;;;;19.94;63.17;100358.50;5072226;27;45568;-58
2022/09/08 09:30:22;;;;;;;;;4.00;2.33;;;;;19.94;62.60;100355.81;5067282;27;45632;-57
2022/09/08 09:33:19;;;;;;;;;2.33;2.33;;;;;20.01;62.81;100356.88;5086921;27;45530;-58
2022/09/08 09:36:29;;;;;;;;;8.33;3.67;;;;;20.16;62.27;100357.22;5102241;27;45427;-58
2022/09/08 09:39:29;;;;;;;;;2.67;2.67;;;;;20.21;62.09;100351.38;5117439;27;45252;-58
2022/09/08 09:42:27;;;;;;;;;1.00;1.00;;;;;20.17;62.00;100349.94;5087180;27;46421;-57
2022/09/08 09:45:26;;;;;;;;;4.00;3.25;;;;;20.17;62.21;100352.66;5096719;27;45451;-57
2022/09/08 09:48:31;;;;;;;;;4.00;3.00;;;;;20.19;61.89;100350.69;5084055;27;45954;-57
2022/09/08 09:51:07;;;;;;;;;4.00;4.00;;;;;20.14;61.74;100342.16;5084168;27;45428;-58
2022/09/08 09:53:58;;;;;;;;;6.00;4.00;;;;;20.12;62.76;100349.56;5095439;27;45362;-57
2022/09/08 09:56:48;;;;;;;;;2.25;2.25;;;;;20.08;62.92;100343.66;5090640;27;45239;-56
2022/09/08 09:59:44;;;;;;;;;3.00;3.00;;;;;20.08;62.97;100348.19;5093504;27;45587;-57
2022/09/08 10:02:35;;;;;;;;;4.00;2.00;;;;;20.25;62.50;100337.38;5082714;27;45381;-57
2022/09/08 10:05:40;;;;;;;;;3.75;2.50;;;;;20.30;62.10;100336.91;5075698;27;45538;-58
2022/09/08 10:08:18;;;;;;;;;6.00;3.67;;;;;20.37;61.95;100345.25;5089071;27;45447;-59
2022/09/08 10:10:46;;;;;;;;;3.00;3.00;;;;;20.47;61.88;100336.13;5090976;27;45679;-58
2022/09/08 10:13:15;;;;;;;;;2.33;2.33;;;;;20.48;61.21;100324.31;5090769;27;45449;-58
2022/09/08 10:16:05;;;;;;;;;3.00;3.00;;;;;20.44;61.46;100339.09;5075692;27;47062;-58
2022/09/08 10:18:52;;;;;;;;;2.00;2.00;;;;;20.51;61.92;100323.97;5091277;27;45399;-58
2022/09/08 10:22:11;;;;;;;;;3.33;3.33;;;;;20.57;61.50;100328.78;5076213;28;45531;-57
2022/09/08 10:25:14;;;;;;;;;4.67;1.33;;;;;20.65;61.39;100324.41;5034153;28;45459;-59
2022/09/08 10:27:45;;;;;;;;;4.33;3.00;;;;;20.70;61.19;100317.53;5075597;28;46193;-57
2022/09/08 10:30:21;;;;;;;;;4.33;2.00;;;;;20.75;61.13;100320.63;5075827;27;45407;-59
2022/09/08 10:33:15;;;;;;;;;4.00;2.75;;;;;20.70;61.48;100309.41;5076045;27;45275;-57
2022/09/08 10:35:51;;;;;;;;;5.33;4.00;;;;;20.81;60.75;100308.31;5092856;27;45466;-58
2022/09/08 10:38:44;;;;;;;;;3.00;3.00;;;;;20.80;60.90;100298.50;5096232;27;45468;-57
2022/09/08 10:41:27;;;;;;;;;3.33;2.33;;;;;20.88;61.24;100307.53;5095869;27;45554;-58
2022/09/08 10:44:12;;;;;;;;;5.00;3.67;;;;;20.88;60.64;100299.44;5096217;27;45384;-58
2022/09/08 10:47:14;;;;;;;;;4.00;2.33;;;;;21.06;60.85;100307.47;5098796;27;45252;-58
2022/09/08 10:50:28;;;;;;;;;3.00;3.00;;;;;21.36;61.24;100313.41;5098961;27;46760;-57
2022/09/08 10:53:11;;;;;;;;;5.00;3.75;;;;;21.31;60.00;100303.06;5081594;27;45445;-58
2022/09/08 10:56:01;;;;;;;;;3.00;3.00;;;;;21.26;60.41;100302.72;5099522;27;45398;-59
2022/09/08 10:58:49;;;;;;;;;3.00;3.00;;;;;21.17;60.32;100304.47;5099841;27;45237;-58
2022/09/08 11:01:27;;;;;;;;;3.00;3.00;;;;;21.09;60.62;100300.88;5098774;27;46147;-58
2022/09/08 11:04:29;;;;;;;;;3.00;3.00;;;;;20.93;60.82;100298.94;5099183;27;45461;-60
2022/09/08 11:07:22;;;;;;;;;4.00;4.00;;;;;20.92;60.69;100305.34;5099106;27;45401;-57
2022/09/08 11:10:09;;;;;;;;;4.67;2.67;;;;;21.09;59.48;100296.31;5099781;27;45168;-58
2022/09/08 11:12:53;;;;;;;;;5.00;5.00;;;;;21.34;58.74;100293.75;5098754;27;46196;-58
2022/09/08 11:15:37;;;;;;;;;3.00;1.25;;;;;21.45;58.81;100301.59;5098939;27;45345;-57
2022/09/08 11:18:17;;;;;;;;;2.00;2.00;;;;;21.61;58.35;100301.66;5098943;27;45341;-58
2022/09/08 11:20:50;;;;;;;;;3.33;3.33;;;;;21.68;56.84;100307.28;5098825;27;45324;-57
2022/09/08 11:23:48;;;;;;;;;3.50;3.00;;;;;21.86;56.61;100293.59;5098283;27;46924;-57
2022/09/08 11:26:32;;;;;;;;;2.75;2.75;;;;;21.99;55.61;100289.38;5063798;27;45470;-57
2022/09/08 11:29:11;;;;;;;;;1.25;1.25;;;;;22.05;55.43;100286.06;5097302;27;45522;-58
2022/09/08 11:31:48;;;;;;;;;1.25;1.25;;;;;22.11;55.32;100292.66;5097385;27;45633;-60
2022/09/08 11:35:07;;;;;;;;;4.00;2.00;;;;;22.12;54.53;100299.75;5098452;27;45340;-59
2022/09/08 11:37:55;;;;;;;;;2.00;2.00;;;;;22.12;54.86;100304.34;5088327;27;45499;-58
2022/09/08 11:40:51;;;;;;;;;3.50;2.00;;;;;22.13;54.23;100306.03;5098992;27;45266;-58
2022/09/08 11:43:19;;;;;;;;;1.00;1.00;;;;;22.29;53.02;100306.91;5098562;27;45283;-59
2022/09/08 11:46:12;;;;;;;;;2.00;2.00;;;;;22.47;52.01;100295.91;5096959;27;46670;-57
2022/09/08 11:49:06;;;;;;;;;2.00;2.00;;;;;22.52;52.04;100290.81;5098559;27;45325;-57
2022/09/08 11:52:10;;;;;;;;;2.75;2.00;;;;;22.74;51.85;100293.84;5098914;27;45354;-57
2022/09/08 11:54:57;;;;;;;;;3.25;2.00;;;;;22.92;51.86;100280.97;5097615;27;45627;-59
2022/09/08 11:57:50;;;;;;;;;1.00;1.00;;;;;23.05;51.35;100283.13;5097017;27;47134;-60
2022/09/08 12:00:37;;;;;;;;;3.25;2.00;;;;;23.25;50.48;100265.44;5081406;27;45390;-58
2022/09/08 12:03:33;;;;;;;;;1.75;1.75;;;;;23.31;49.36;100275.59;5078400;27;45551;-57
2022/09/08 12:06:36;;;;;;;;;2.75;2.00;;;;;23.42;50.99;100272.47;5085306;27;45604;-56
2022/09/08 12:09:28;;;;;;;;;1.00;1.00;;;;;23.74;49.21;100276.09;5098045;27;45405;-60
2022/09/08 12:12:24;;;;;;;;;1.75;1.25;;;;;23.93;48.64;100275.59;5098384;27;45337;-58